• Join FlightAware (Why Join?)
  • Login
  • US Flag 
07:50PM EDT


 

Airport Tracker/Info


-or-


 

Live Flight TrackerFlight Track Log ✈ UAL407 ✈ 16-May-2013 ✈ KALB - KORD

Flight Track Log - Related Links

Times and Time Zones

All times are in EDT time to prevent confusion due to time zone crossing. See the UAL407 flight status page for this flight to view local times or setup timezone preferences in your user account.

Time Position Orientation Groundspeed Altitude Reporting Facility
EDT Latitude Longitude Course Direction KTS MPH feet Rate Location/Type
06:10PM 42.7503 -73.8283 261° West 148 170 1,400  Level Boston Center
06:10PM 42.7458 -73.8678 261° West 184 212 2,500 2,460 Climbing Boston Center
06:12PM 42.8008 -73.9569 310° West 257 296 6,500 3,180 Climbing Boston Center
06:13PM 42.8606 -74.0150 325° Northwest 250 288 10,400 2,880 Climbing Boston Center
06:14PM 42.9181 -74.0789 321° Northwest 274 315 12,300 2,520 Climbing Boston Center
06:15PM 42.9897 -74.1631 319° Northwest 296 341 15,500 2,700 Climbing Boston Center
06:16PM 43.0422 -74.2667 305° West 305 351 18,300 2,520 Climbing Boston Center
06:17PM 43.0528 -74.3892 277° West 300 345 21,100 2,280 Climbing Boston Center
06:18PM 43.0608 -74.5144 275° West 314 361 22,900 1,860 Climbing Boston Center
06:19PM 43.0689 -74.6400 275° West 333 383 24,900 1,800 Climbing Boston Center
06:20PM 43.0789 -74.7683 276° West 333 383 26,500 1,560 Climbing Boston Center
06:21PM 43.0867 -74.9022 275° West 345 397 28,100 1,500 Climbing Boston Center
06:22PM 43.0956 -75.0589 274° West 350 403 29,800 840 Climbing Boston Center
06:23PM 43.1044 -75.2100 275° West 361 415 30,000 60 Climbing Boston Center
06:24PM 43.1136 -75.3528 275° West 367 422 30,000  Level Boston Center
06:25PM 43.1225 -75.4897 275° West 372 428 30,000  Level Boston Center
06:26PM 43.1289 -75.6294 274° West 372 428 30,000 720 Level Boston Center
06:27PM 43.1378 -75.7636 275° West 367 422 31,500 1,380 Climbing Boston Center
06:28PM 43.1439 -75.9036 273° West 367 422 32,800 720 Climbing Boston Center
06:29PM 43.1522 -76.0378 275° West 367 422 33,000 660 Climbing Boston Center
06:33PM 43.1589 -76.5500 271° West 338 389 36,000 600 Climbing Cleveland Center
06:34PM 43.1594 -76.6867 270° West 351 404 36,000  Level Cleveland Center
06:35PM 43.1594 -76.8092 270° West 351 404 36,000  Level Cleveland Center
06:36PM 43.1597 -76.9456 270° West 351 404 36,000  Level Cleveland Center
06:37PM 43.1575 -77.0797 269° West 346 398 36,000  Level Cleveland Center
06:38PM 43.1575 -77.2161 270° West 356 410 36,000  Level Cleveland Center
06:39PM 43.1550 -77.3531 269° West 361 415 36,000  Level Cleveland Center
06:40PM 43.1547 -77.4953 270° West 371 427 36,000  Level Cleveland Center
06:41PM 43.1542 -77.6319 270° West 371 427 36,000  Level Cleveland Center
06:42PM 43.1514 -77.7689 268° West 366 421 36,000  Level Cleveland Center
06:43PM 43.1503 -77.9083 269° West 366 421 36,000  Level Cleveland Center
06:44PM 43.1472 -78.0450 268° West 366 421 36,000  Level Cleveland Center
06:45PM 43.1461 -78.1844 269° West 366 421 36,000  Level Cleveland Center
06:46PM 43.1425 -78.3211 268° West 366 421 36,000  Level Cleveland Center
06:47PM 43.1411 -78.4636 269° West 366 421 36,000  Level Cleveland Center
06:48PM 43.1372 -78.6003 268° West 366 421 36,000  Level Cleveland Center
06:49PM 43.1333 -78.7397 268° West 366 421 36,000  Level Cleveland Center
06:50PM 43.1292 -78.8792 268° West 366 421 36,000  Level Cleveland Center
06:50PM 43.1167 -78.9333 252° West 370 426 36,000  Level Toronto Center
06:51PM 43.1167 -79.0667 270° West 370 426 36,000  Level Toronto Center
06:52PM 43.1000 -79.2167 261° West 370 426 36,000  Level Toronto Center
06:53PM 43.1000 -79.3333 270° West 370 426 36,000  Level Toronto Center
06:54PM 43.1000 -79.5000 270° West 370 426 36,000  Level Toronto Center
06:55PM 43.0833 -79.6167 259° West 360 414 36,000  Level Toronto Center
06:56PM 43.0833 -79.7667 270° West 360 414 36,000  Level Toronto Center
06:57PM 43.0833 -79.9000 270° West 360 414 36,000  Level Toronto Center
06:58PM 43.0833 -80.0167 270° West 360 414 36,000  Level Toronto Center
06:59PM 43.0667 -80.1833 262° West 370 426 36,000  Level Toronto Center
07:00PM 43.0667 -80.3167 270° West 370 426 36,000  Level Toronto Center
07:01PM 43.0667 -80.4500 270° West 370 426 36,000  Level Toronto Center
07:02PM 43.0500 -80.6167 262° West 380 437 36,000 -300 Level Toronto Center
07:03PM 43.0500 -80.7500 270° West 380 437 35,500 -1,020 Descending Toronto Center
07:04PM 43.0333 -80.8833 260° West 380 437 34,000 -780 Descending Toronto Center
07:05PM 43.0167 -81.0500 262° West 390 449 34,000  Level Toronto Center
07:06PM 43.0167 -81.1833 270° West 390 449 34,000  Level Toronto Center
07:07PM 43.0167 -81.3500 270° West 390 449 34,000  Level Toronto Center
07:08PM 43.0167 -81.4833 270° West 390 449 34,000  Level Toronto Center
07:09PM 43.0167 -81.6333 270° West 400 460 34,000  Level Toronto Center
07:10PM 43.0167 -81.7833 270° West 390 449 34,000  Level Toronto Center
07:11PM 43.0000 -81.9333 261° West 390 449 34,000  Level Toronto Center
07:12PM 43.0000 -82.0667 270° West 390 449 34,000  Level Toronto Center
07:13PM 43.0000 -82.2333 270° West 400 460 34,000  Level Toronto Center
07:14PM 43.0000 -82.3833 270° West 400 460 34,000  Level Toronto Center
07:15PM 43.0000 -82.5333 270° West 400 460 34,000  Level Toronto Center
07:16PM 43.0017 -82.6867 271° West 401 461 34,000  Level Cleveland Center
07:17PM 42.9967 -82.8369 267° West 401 461 34,000  Level Cleveland Center
07:18PM 42.9936 -82.9875 268° West 401 461 34,000 -420 Level Cleveland Center
07:19PM 42.9883 -83.1378 267° West 401 461 33,200 -900 Descending Cleveland Center
07:20PM 42.9808 -83.2906 266° West 401 461 32,200 -600 Descending Cleveland Center
07:21PM 42.9769 -83.4436 268° West 401 461 32,000 -120 Descending Cleveland Center
07:23PM 42.9647 -83.7525 267° West 406 467 32,000  Level Cleveland Center
07:24PM 42.9522 -83.9022 264° West 406 467 32,000  Level Cleveland Center
07:25PM 42.9353 -84.0544 261° West 406 467 32,000  Level Cleveland Center
07:27PM 42.8833 -84.3667 257° West 410 472 32,000  Level Toronto Center
07:27PM 42.9033 -84.3972 312° West 411 473 32,000  Level Chicago Center
07:29PM 42.8875 -84.5514 262° West 410 472 32,000  Level Chicago Center
07:30PM 42.8722 -84.7056 262° West 412 474 32,000  Level Chicago Center
07:31PM 42.8522 -84.8908 262° West 412 474 32,000  Level Chicago Center
07:32PM 42.8358 -85.0453 262° West 413 475 32,000 -180 Level Chicago Center
07:33PM 42.8192 -85.2011 262° West 415 478 31,700 -660 Descending Chicago Center
07:34PM 42.8019 -85.3589 262° West 419 482 30,700 -960 Descending Chicago Center
07:35PM 42.7828 -85.5181 261° West 423 487 29,700 -960 Descending Chicago Center
07:36PM 42.7536 -85.6792 256° West 432 497 28,700 -1,200 Descending Chicago Center
07:37PM 42.7236 -85.8447 256° West 445 512 27,300 -2,280 Descending Chicago Center
07:38PM 42.6875 -86.0406 256° West 443 510 24,000 -3,000 Descending Chicago Center
07:39PM 42.6583 -86.2003 256° West 434 499 21,200 -2,340 Descending Chicago Center
07:40PM 42.6286 -86.3572 256° West 427 491 19,200 -1,500 Descending Chicago Center
07:41PM 42.5994 -86.5100 256° West 420 483 18,100 -1,020 Descending Chicago Center
07:42PM 42.5714 -86.6589 256° West 410 472 17,100 -1,020 Descending Chicago Center
07:43PM 42.5403 -86.8042 254° West 404 465 16,100 -1,020 Descending Chicago Center
07:44PM 42.5017 -86.9439 249° West 399 459 15,100 -1,800 Descending Chicago Center
07:45PM 42.4553 -87.1050 249° West 383 441 12,500 -2,280 Descending Chicago Center
07:46PM 42.4197 -87.2383 250° West 378 435 10,400 -1,200 Descending Chicago Center
07:47PM 42.3856 -87.3633 250° West 361 415 10,000 -240 Descending Chicago Center
07:48PM 42.3514 -87.4844 249° West 338 389 10,000  Level Chicago Center
07:49PM 42.2931 -87.5794 230° Southwest 348 400 10,000  Level Chicago Center
07:50PM 42.2175 -87.6619 219° Southwest 349 402 10,000 -240 Level Chicago Center
07:51PM 42.1403 -87.7442 218° Southwest 297 342 9,600 -840 Descending Chicago Center
07:52PM 42.1167 -87.7833 231° Southwest 290 334 8,800 -1,620 Descending Chicago TRACON
07:53PM 42.0833 -87.8833 246° West 285 328 7,400 -960 Descending Chicago TRACON
07:54PM 42.0667 -87.9667 255° West 281 323 7,000 -420 Descending Chicago TRACON
07:55PM 42.0500 -88.0667 257° West 242 278 6,600 -660 Descending Chicago TRACON
07:55PM 42.0533 -88.1300 274° West 241 277 5,900 -720 Descending Chicago Center
07:56PM 42.0539 -88.2156 271° West 234 269 5,400 -420 Descending Chicago Center
07:58PM 42.0556 -88.2975 272° West 228 262 5,100 -240 Descending Chicago Center
07:59PM 42.0486 -88.3656 262° West 209 241 5,000 -60 Descending Chicago Center
08:00PM 41.9989 -88.3639 179° South 197 227 5,000  Level Chicago Center
08:01PM 41.9678 -88.2897 119° Southeast 194 223 5,000  Level Chicago Center
08:02PM 41.9675 -88.2186 90° East 196 226 5,000 -480 Level Chicago Center
08:03PM 41.9681 -88.1533 89° East 183 211 4,100 -1,080 Descending Chicago Center
08:04PM 41.9667 -88.0833 92° East 182 209 3,000 -1,200 Descending Chicago TRACON
08:05PM 41.9667 -88.0167 90° East 168 193 1,900 -900 Descending Chicago TRACON
08:06PM 41.9667 -87.9667 90° East 125 144 1,200 -720 Descending Chicago TRACON
08:08PM 41.9667 -87.9000 95° East  Level FlightAware Approximate
08:15PM 41.9817 -87.9067 95° East  Level Estimated